createdAt,value
2023-05-11T00:01:11.116Z,14.12
2023-05-11T00:06:12.708Z,14.11
2023-05-11T00:11:14.383Z,14.19
2023-05-11T00:16:16.007Z,14.17
2023-05-11T00:21:17.621Z,13.95
2023-05-11T00:26:19.136Z,14.04
2023-05-11T00:31:20.851Z,14.16
2023-05-11T00:36:22.522Z,14.14
2023-05-11T00:41:24.342Z,14.02
2023-05-11T00:46:27.795Z,13.86
2023-05-11T00:51:32.078Z,14.06
2023-05-11T00:56:33.639Z,13.91
2023-05-11T01:01:35.935Z,14.05
2023-05-11T01:06:52.123Z,13.90
2023-05-11T01:11:59.713Z,13.93
2023-05-11T01:17:10.270Z,13.94
2023-05-11T01:22:30.603Z,13.88
2023-05-11T01:27:45.075Z,14.06
2023-05-11T01:32:47.237Z,14.09
2023-05-11T01:37:55.359Z,14.01
2023-05-11T01:43:09.873Z,13.94
2023-05-11T01:48:17.281Z,14.01
2023-05-11T01:53:20.000Z,13.57
2023-05-11T01:58:23.939Z,13.94
2023-05-11T02:03:26.301Z,13.86
2023-05-11T02:08:30.158Z,13.94
2023-05-11T02:13:34.678Z,13.99
2023-05-11T02:18:40.242Z,13.76
2023-05-11T02:23:43.281Z,13.85
2023-05-11T02:28:44.944Z,13.90
2023-05-11T02:33:52.129Z,13.90
2023-05-11T02:39:02.304Z,13.85
2023-05-11T02:44:06.421Z,13.87
2023-05-11T02:49:10.303Z,13.88
2023-05-11T02:54:13.224Z,13.79
2023-05-11T02:59:15.975Z,13.76
2023-05-11T03:04:18.098Z,13.77
2023-05-11T03:09:19.799Z,13.80
2023-05-11T03:14:22.037Z,13.57
2023-05-11T03:19:24.186Z,13.75
2023-05-11T03:24:26.452Z,13.74
2023-05-11T03:29:29.933Z,13.67
2023-05-11T03:34:32.484Z,13.75
2023-05-11T03:39:37.208Z,13.73
2023-05-11T03:44:40.373Z,13.74
2023-05-11T03:49:43.450Z,13.74
2023-05-11T03:54:45.777Z,13.76
2023-05-11T03:59:47.509Z,13.72
2023-05-11T04:04:49.168Z,13.70
2023-05-11T04:09:50.767Z,13.68
2023-05-11T04:14:52.347Z,13.73
2023-05-11T04:19:53.917Z,13.68
2023-05-11T04:24:55.574Z,13.67
2023-05-11T04:29:57.111Z,13.64
2023-05-11T04:34:58.636Z,13.75
2023-05-11T04:40:00.227Z,13.63
2023-05-11T04:45:01.782Z,13.66
2023-05-11T04:50:03.677Z,13.78
2023-05-11T04:55:05.999Z,13.65
2023-05-11T05:00:09.356Z,13.54
2023-05-11T05:05:11.001Z,13.65
2023-05-11T05:10:13.013Z,13.72
2023-05-11T05:15:14.627Z,13.70
2023-05-11T05:20:16.473Z,13.58
2023-05-11T05:25:18.181Z,13.63
2023-05-11T05:30:20.071Z,13.56
2023-05-11T05:35:22.151Z,13.51
2023-05-11T05:40:23.698Z,13.42
2023-05-11T05:45:25.329Z,13.64
2023-05-11T05:50:27.702Z,13.57
2023-05-11T05:55:29.273Z,13.34
2023-05-11T06:00:31.223Z,13.52
2023-05-11T06:05:32.862Z,13.46
2023-05-11T06:10:34.431Z,13.34
2023-05-11T06:15:36.258Z,13.33
2023-05-11T06:20:37.792Z,13.29
2023-05-11T06:25:39.441Z,13.23
2023-05-11T06:30:41.068Z,13.26
2023-05-11T06:35:42.652Z,13.41
2023-05-11T06:40:44.816Z,13.12
2023-05-11T06:45:46.416Z,13.16
2023-05-11T06:50:47.984Z,13.31
2023-05-11T06:55:49.644Z,13.29
2023-05-11T07:00:51.350Z,13.26
2023-05-11T07:05:52.902Z,13.23
2023-05-11T07:10:54.581Z,13.19
2023-05-11T07:15:57.800Z,13.18
2023-05-11T07:20:59.537Z,13.16
2023-05-11T07:26:01.841Z,13.20
2023-05-11T07:31:03.632Z,12.84
2023-05-11T07:36:06.751Z,13.27
2023-05-11T07:41:10.851Z,13.14
2023-05-11T07:46:13.971Z,13.15
2023-05-11T07:51:15.613Z,12.97
2023-05-11T07:56:17.185Z,12.82
2023-05-11T08:01:18.851Z,13.05
2023-05-11T08:06:20.452Z,12.87
2023-05-11T08:11:22.462Z,12.88
2023-05-11T08:16:24.176Z,12.93
2023-05-11T08:21:26.406Z,12.98
2023-05-11T08:26:28.442Z,12.83
2023-05-11T08:31:30.549Z,12.98
2023-05-11T08:36:32.422Z,12.93
2023-05-11T08:41:34.917Z,12.74
2023-05-11T08:46:41.828Z,12.82
2023-05-11T08:51:43.479Z,12.96
2023-05-11T08:56:45.558Z,12.68
2023-05-11T09:01:47.836Z,12.93
2023-05-11T09:06:50.947Z,12.74
2023-05-11T09:11:54.307Z,12.92
2023-05-11T09:16:56.075Z,12.98
2023-05-11T09:21:59.525Z,13.04
2023-05-11T09:27:09.256Z,12.84
2023-05-11T09:32:11.692Z,12.86
2023-05-11T09:37:18.283Z,12.87
2023-05-11T09:42:21.529Z,12.88
2023-05-11T09:47:23.546Z,12.77
2023-05-11T09:52:25.542Z,12.81
2023-05-11T09:57:27.212Z,12.89
2023-05-11T10:02:32.172Z,12.77
2023-05-11T10:07:35.480Z,12.66
2023-05-11T10:12:40.481Z,12.89
2023-05-11T10:17:44.830Z,12.94
2023-05-11T10:22:47.033Z,12.82
2023-05-11T10:27:48.783Z,12.82
2023-05-11T10:32:52.046Z,12.61
2023-05-11T10:37:54.827Z,12.82
2023-05-11T10:43:08.711Z,12.62
2023-05-11T10:48:37.391Z,12.82
2023-05-11T10:54:16.726Z,12.58
2023-05-11T10:59:42.609Z,12.71
2023-05-11T11:04:53.800Z,12.72
2023-05-11T11:10:00.885Z,12.61
2023-05-11T11:15:06.255Z,12.83
2023-05-11T11:20:08.795Z,12.68
2023-05-11T11:25:12.504Z,12.76
2023-05-11T11:30:23.936Z,12.83
2023-05-11T11:35:41.762Z,12.76
2023-05-11T11:40:58.017Z,12.88
2023-05-11T11:46:01.694Z,12.96
2023-05-11T11:51:08.548Z,12.67
2023-05-11T11:56:16.411Z,12.72
2023-05-11T12:01:23.353Z,13.62
2023-05-11T12:06:32.486Z,14.15
2023-05-11T12:11:35.137Z,13.22
2023-05-11T12:16:36.793Z,13.79
2023-05-11T12:21:38.447Z,13.95
2023-05-11T12:26:40.079Z,13.37
2023-05-11T12:31:43.789Z,13.55
2023-05-11T12:36:49.497Z,13.73
2023-05-11T12:41:53.508Z,13.21
2023-05-11T12:46:55.371Z,14.29
2023-05-11T12:52:00.005Z,14.36
2023-05-11T12:57:03.038Z,12.76
2023-05-11T13:02:24.886Z,13.65
2023-05-11T13:07:28.383Z,13.72
2023-05-11T13:12:32.244Z,13.11
2023-05-11T13:17:38.906Z,13.32
2023-05-11T13:22:40.767Z,13.51
2023-05-11T13:27:42.421Z,12.62
2023-05-11T13:32:44.259Z,12.79
2023-05-11T13:37:47.131Z,12.76
2023-05-11T13:42:48.775Z,12.76
2023-05-11T13:47:50.514Z,12.94
2023-05-11T13:52:53.392Z,12.64
2023-05-11T13:57:56.977Z,12.73
2023-05-11T14:02:58.757Z,12.73
2023-05-11T14:08:00.516Z,12.83
2023-05-11T14:13:02.154Z,12.79
2023-05-11T14:18:05.278Z,12.88
2023-05-11T14:23:07.018Z,12.62
2023-05-11T14:28:08.661Z,12.82
2023-05-11T14:33:10.355Z,12.84
2023-05-11T14:38:11.969Z,12.73
2023-05-11T14:43:13.937Z,12.70
2023-05-11T14:48:15.582Z,12.89
2023-05-11T14:53:17.142Z,12.80
2023-05-11T14:58:18.751Z,12.75
2023-05-11T15:03:20.539Z,12.64
2023-05-11T15:08:29.724Z,12.48
2023-05-11T15:13:32.274Z,12.80
2023-05-11T15:18:33.905Z,12.67
2023-05-11T15:23:35.456Z,12.76
2023-05-11T15:28:37.137Z,12.64
2023-05-11T15:33:39.572Z,12.57
2023-05-11T15:38:43.060Z,12.66
2023-05-11T15:43:44.745Z,12.73
2023-05-11T15:48:46.414Z,12.75
2023-05-11T15:53:48.079Z,12.79
2023-05-11T15:58:49.627Z,12.60
2023-05-11T16:03:51.422Z,12.79
2023-05-11T16:08:53.553Z,12.75
2023-05-11T16:13:55.166Z,12.59
2023-05-11T16:18:58.363Z,12.68
2023-05-11T16:24:00.332Z,12.71
2023-05-11T16:29:02.376Z,12.60
2023-05-11T16:34:04.230Z,12.78
2023-05-11T16:39:05.899Z,12.78
2023-05-11T16:44:07.754Z,12.69
2023-05-11T16:49:09.609Z,12.49
2023-05-11T16:54:11.846Z,12.37
2023-05-11T16:59:15.547Z,12.40
2023-05-11T17:04:18.049Z,12.43
2023-05-11T17:09:20.508Z,12.73
2023-05-11T17:14:22.727Z,12.64
2023-05-11T17:19:25.684Z,12.54
2023-05-11T17:24:29.244Z,12.37
2023-05-11T17:29:31.826Z,12.26
2023-05-11T17:34:34.334Z,12.46
2023-05-11T17:39:36.865Z,12.42
2023-05-11T17:44:39.708Z,12.45
2023-05-11T17:49:42.630Z,12.41
2023-05-11T17:54:45.030Z,12.29
2023-05-11T17:59:48.299Z,12.35
2023-05-11T18:04:51.108Z,12.39
2023-05-11T18:09:53.586Z,12.26
2023-05-11T18:14:56.096Z,12.41
2023-05-11T18:19:58.563Z,12.28
2023-05-11T18:25:01.205Z,12.23
2023-05-11T18:30:03.653Z,12.23
2023-05-11T18:35:06.499Z,12.26
2023-05-11T18:40:11.525Z,12.34
2023-05-11T18:45:14.507Z,12.21
2023-05-11T18:56:45.137Z,12.19
2023-05-11T19:01:48.545Z,12.22
2023-05-11T19:06:51.162Z,12.12
2023-05-11T19:11:53.585Z,12.10
2023-05-11T19:16:56.043Z,12.14
2023-05-11T19:22:00.198Z,12.07
2023-05-11T19:27:07.470Z,12.02
2023-05-11T19:32:10.574Z,12.04
2023-05-11T19:37:12.935Z,11.99
2023-05-11T19:42:15.848Z,12.06
2023-05-11T19:47:19.293Z,12.02
2023-05-11T19:52:21.691Z,11.96
2023-05-11T19:57:26.860Z,12.04
2023-05-11T20:02:29.516Z,12.03
2023-05-11T20:07:32.682Z,12.00
2023-05-11T20:12:35.063Z,12.00
2023-05-11T20:17:37.645Z,11.96
2023-05-11T20:22:39.976Z,11.99
2023-05-11T20:27:42.758Z,11.92
2023-05-11T20:37:50.358Z,12.01
2023-05-11T20:42:52.556Z,11.83
2023-05-11T20:47:54.594Z,11.96
2023-05-11T20:52:56.488Z,11.87
2023-05-11T20:57:58.072Z,11.94
2023-05-11T21:02:59.679Z,11.86
2023-05-11T21:08:01.601Z,11.82
2023-05-11T21:13:03.904Z,11.83
2023-05-11T21:18:06.609Z,11.73
2023-05-11T21:23:08.557Z,11.81
2023-05-11T21:28:10.138Z,11.80
2023-05-11T21:33:12.153Z,11.54
2023-05-11T21:38:15.187Z,11.42
2023-05-11T21:43:16.877Z,11.60
2023-05-11T21:48:18.670Z,11.57
2023-05-11T21:53:21.062Z,11.48
2023-05-11T21:58:23.006Z,11.54
2023-05-11T22:03:25.554Z,11.57
2023-05-11T22:08:27.370Z,11.70
2023-05-11T22:13:28.934Z,11.45
2023-05-11T22:18:30.550Z,11.52
2023-05-11T22:23:34.513Z,11.53
2023-05-11T22:28:36.084Z,11.45
2023-05-11T22:33:37.838Z,11.44
2023-05-11T22:38:39.423Z,11.38
2023-05-11T22:43:41.152Z,11.26
2023-05-11T22:48:42.964Z,11.52
2023-05-11T22:53:45.563Z,11.43
2023-05-11T22:58:47.137Z,11.54
2023-05-11T23:03:49.126Z,11.45
2023-05-11T23:08:51.139Z,11.50
2023-05-11T23:13:52.741Z,11.24
2023-05-11T23:18:54.431Z,11.41
2023-05-11T23:23:56.191Z,11.38
2023-05-11T23:28:57.902Z,11.48
2023-05-11T23:34:00.268Z,11.09
2023-05-11T23:39:02.019Z,11.20
2023-05-11T23:44:03.792Z,11.35
2023-05-11T23:49:05.381Z,11.28
2023-05-11T23:54:07.188Z,11.32
2023-05-11T23:59:08.796Z,11.32
